sensor_id;sensor_type;location;lat;lon;timestamp;P1;durP1;ratioP1;P2;durP2;ratioP2
19495;SDS011;9888;48.606;9.630;2022-12-05T18:17:44;9.57;;;3.77;;
19495;SDS011;9888;48.606;9.630;2022-12-05T18:20:15;9.30;;;3.57;;
19495;SDS011;9888;48.606;9.630;2022-12-05T18:22:45;8.57;;;3.53;;
19495;SDS011;9888;48.606;9.630;2022-12-05T18:25:13;8.57;;;3.23;;
19495;SDS011;9888;48.606;9.630;2022-12-05T18:27:42;9.43;;;3.90;;
19495;SDS011;9888;48.606;9.630;2022-12-05T18:30:12;9.90;;;3.20;;
19495;SDS011;9888;48.606;9.630;2022-12-05T18:32:41;8.27;;;3.03;;
19495;SDS011;9888;48.606;9.630;2022-12-05T18:35:10;9.60;;;3.80;;
19495;SDS011;9888;48.606;9.630;2022-12-05T18:37:39;7.47;;;2.80;;
19495;SDS011;9888;48.606;9.630;2022-12-05T18:40:07;8.93;;;3.27;;
19495;SDS011;9888;48.606;9.630;2022-12-05T18:42:44;8.80;;;3.57;;
19495;SDS011;9888;48.606;9.630;2022-12-05T18:45:12;12.93;;;3.67;;
19495;SDS011;9888;48.606;9.630;2022-12-05T18:47:40;8.73;;;3.67;;
19495;SDS011;9888;48.606;9.630;2022-12-05T18:50:08;8.53;;;3.37;;
19495;SDS011;9888;48.606;9.630;2022-12-05T18:52:35;9.10;;;3.03;;
19495;SDS011;9888;48.606;9.630;2022-12-05T18:55:11;9.30;;;3.57;;
19495;SDS011;9888;48.606;9.630;2022-12-05T18:57:41;8.10;;;3.37;;
19495;SDS011;9888;48.606;9.630;2022-12-05T19:00:08;8.47;;;2.67;;
19495;SDS011;9888;48.606;9.630;2022-12-05T19:02:38;9.20;;;3.60;;
19495;SDS011;9888;48.606;9.630;2022-12-05T19:05:06;8.70;;;3.17;;
19495;SDS011;9888;48.606;9.630;2022-12-05T19:07:32;9.00;;;3.10;;
19495;SDS011;9888;48.606;9.630;2022-12-05T19:10:00;8.53;;;2.90;;
19495;SDS011;9888;48.606;9.630;2022-12-05T19:12:28;9.73;;;3.23;;
19495;SDS011;9888;48.606;9.630;2022-12-05T19:14:55;9.03;;;3.23;;
19495;SDS011;9888;48.606;9.630;2022-12-05T19:17:22;9.30;;;3.23;;
19495;SDS011;9888;48.606;9.630;2022-12-05T19:19:49;8.30;;;3.07;;
19495;SDS011;9888;48.606;9.630;2022-12-05T19:22:18;8.10;;;2.90;;
19495;SDS011;9888;48.606;9.630;2022-12-05T19:24:45;8.80;;;3.10;;
19495;SDS011;9888;48.606;9.630;2022-12-05T19:27:13;6.93;;;2.67;;
19495;SDS011;9888;48.606;9.630;2022-12-05T19:29:40;7.47;;;2.70;;
19495;SDS011;9888;48.606;9.630;2022-12-05T19:32:10;9.17;;;3.40;;
19495;SDS011;9888;48.606;9.630;2022-12-05T19:34:39;8.50;;;2.93;;
19495;SDS011;9888;48.606;9.630;2022-12-05T19:37:08;8.97;;;3.10;;
19495;SDS011;9888;48.606;9.630;2022-12-05T19:39:36;8.73;;;3.13;;
19495;SDS011;9888;48.606;9.630;2022-12-05T19:42:03;7.60;;;2.80;;
19495;SDS011;9888;48.606;9.630;2022-12-05T19:44:31;8.33;;;3.20;;
19495;SDS011;9888;48.606;9.630;2022-12-05T19:46:58;10.13;;;4.37;;
19495;SDS011;9888;48.606;9.630;2022-12-05T19:49:26;9.20;;;3.70;;
19495;SDS011;9888;48.606;9.630;2022-12-05T19:51:55;8.43;;;3.77;;
19495;SDS011;9888;48.606;9.630;2022-12-05T19:54:22;8.10;;;3.50;;
19495;SDS011;9888;48.606;9.630;2022-12-05T19:56:49;12.10;;;4.33;;
19495;SDS011;9888;48.606;9.630;2022-12-05T19:59:16;11.20;;;5.43;;
19495;SDS011;9888;48.606;9.630;2022-12-05T20:01:45;14.00;;;7.47;;
19495;SDS011;9888;48.606;9.630;2022-12-05T20:04:14;15.20;;;6.77;;
19495;SDS011;9888;48.606;9.630;2022-12-05T20:06:44;9.30;;;3.83;;
19495;SDS011;9888;48.606;9.630;2022-12-05T20:09:14;8.57;;;3.20;;
19495;SDS011;9888;48.606;9.630;2022-12-05T20:11:44;9.80;;;4.50;;
19495;SDS011;9888;48.606;9.630;2022-12-05T20:14:12;10.50;;;4.77;;
19495;SDS011;9888;48.606;9.630;2022-12-05T20:16:42;14.07;;;5.30;;
19495;SDS011;9888;48.606;9.630;2022-12-05T20:19:10;12.67;;;5.60;;
19495;SDS011;9888;48.606;9.630;2022-12-05T20:21:37;10.30;;;4.70;;
19495;SDS011;9888;48.606;9.630;2022-12-05T20:24:06;12.70;;;6.27;;
19495;SDS011;9888;48.606;9.630;2022-12-05T20:26:35;16.80;;;6.93;;
19495;SDS011;9888;48.606;9.630;2022-12-05T20:29:05;12.33;;;6.13;;
19495;SDS011;9888;48.606;9.630;2022-12-05T20:31:35;15.27;;;7.30;;
19495;SDS011;9888;48.606;9.630;2022-12-05T20:34:08;15.70;;;7.27;;
19495;SDS011;9888;48.606;9.630;2022-12-05T20:36:36;13.23;;;6.90;;
19495;SDS011;9888;48.606;9.630;2022-12-05T20:39:04;13.73;;;6.23;;
19495;SDS011;9888;48.606;9.630;2022-12-05T20:41:33;13.50;;;5.83;;
19495;SDS011;9888;48.606;9.630;2022-12-05T20:44:02;14.53;;;6.33;;
19495;SDS011;9888;48.606;9.630;2022-12-05T20:46:33;11.10;;;5.70;;
19495;SDS011;9888;48.606;9.630;2022-12-05T20:49:01;12.03;;;6.17;;
19495;SDS011;9888;48.606;9.630;2022-12-05T20:51:29;14.00;;;6.20;;
19495;SDS011;9888;48.606;9.630;2022-12-05T20:53:59;12.73;;;5.77;;
19495;SDS011;9888;48.606;9.630;2022-12-05T20:56:29;11.27;;;4.73;;
19495;SDS011;9888;48.606;9.630;2022-12-05T20:59:15;11.30;;;4.70;;
19495;SDS011;9888;48.606;9.630;2022-12-05T21:01:42;14.00;;;6.80;;
19495;SDS011;9888;48.606;9.630;2022-12-05T21:04:11;11.90;;;5.53;;
19495;SDS011;9888;48.606;9.630;2022-12-05T21:06:40;10.23;;;5.07;;
19495;SDS011;9888;48.606;9.630;2022-12-05T21:09:08;12.53;;;5.33;;
19495;SDS011;9888;48.606;9.630;2022-12-05T21:11:43;13.83;;;6.23;;
19495;SDS011;9888;48.606;9.630;2022-12-05T21:14:10;17.80;;;8.37;;
19495;SDS011;9888;48.606;9.630;2022-12-05T21:16:37;17.20;;;8.47;;
19495;SDS011;9888;48.606;9.630;2022-12-05T21:19:04;18.87;;;9.27;;
19495;SDS011;9888;48.606;9.630;2022-12-05T21:21:33;15.50;;;7.40;;
19495;SDS011;9888;48.606;9.630;2022-12-05T21:24:01;12.40;;;5.60;;
19495;SDS011;9888;48.606;9.630;2022-12-05T21:26:31;10.43;;;5.33;;
19495;SDS011;9888;48.606;9.630;2022-12-05T21:28:59;10.70;;;4.77;;
19495;SDS011;9888;48.606;9.630;2022-12-05T21:31:28;10.00;;;4.70;;
19495;SDS011;9888;48.606;9.630;2022-12-05T21:34:00;11.93;;;4.70;;
19495;SDS011;9888;48.606;9.630;2022-12-05T21:36:29;10.07;;;4.60;;
19495;SDS011;9888;48.606;9.630;2022-12-05T21:38:59;13.60;;;4.77;;
19495;SDS011;9888;48.606;9.630;2022-12-05T21:41:26;9.73;;;4.30;;
19495;SDS011;9888;48.606;9.630;2022-12-05T21:43:57;9.73;;;4.40;;
19495;SDS011;9888;48.606;9.630;2022-12-05T21:46:24;9.83;;;4.43;;
19495;SDS011;9888;48.606;9.630;2022-12-05T21:48:52;10.77;;;5.10;;
19495;SDS011;9888;48.606;9.630;2022-12-05T21:51:21;10.60;;;4.90;;
19495;SDS011;9888;48.606;9.630;2022-12-05T21:53:49;10.23;;;4.20;;
19495;SDS011;9888;48.606;9.630;2022-12-05T21:56:17;10.60;;;4.27;;
19495;SDS011;9888;48.606;9.630;2022-12-05T22:14:24;9.73;;;4.37;;
19495;SDS011;9888;48.606;9.630;2022-12-05T22:16:51;9.57;;;4.10;;
19495;SDS011;9888;48.606;9.630;2022-12-05T22:19:18;9.53;;;4.20;;
19495;SDS011;9888;48.606;9.630;2022-12-05T22:21:49;10.77;;;4.43;;
19495;SDS011;9888;48.606;9.630;2022-12-05T22:24:19;9.83;;;5.00;;
19495;SDS011;9888;48.606;9.630;2022-12-05T22:26:46;12.00;;;5.30;;
19495;SDS011;9888;48.606;9.630;2022-12-05T22:29:14;13.10;;;6.17;;
19495;SDS011;9888;48.606;9.630;2022-12-05T22:31:44;12.80;;;6.70;;
19495;SDS011;9888;48.606;9.630;2022-12-05T22:34:11;16.57;;;7.27;;
19495;SDS011;9888;48.606;9.630;2022-12-05T22:36:39;13.20;;;6.00;;
19495;SDS011;9888;48.606;9.630;2022-12-05T22:39:06;15.97;;;8.67;;
19495;SDS011;9888;48.606;9.630;2022-12-05T22:41:37;18.17;;;8.90;;
19495;SDS011;9888;48.606;9.630;2022-12-05T22:44:04;15.00;;;7.73;;
19495;SDS011;9888;48.606;9.630;2022-12-05T22:46:31;17.00;;;8.97;;
19495;SDS011;9888;48.606;9.630;2022-12-05T22:49:01;14.80;;;8.00;;
19495;SDS011;9888;48.606;9.630;2022-12-05T22:51:30;18.13;;;8.33;;
19495;SDS011;9888;48.606;9.630;2022-12-05T22:53:57;17.53;;;9.23;;
19495;SDS011;9888;48.606;9.630;2022-12-05T22:56:25;17.23;;;8.17;;
19495;SDS011;9888;48.606;9.630;2022-12-05T22:58:53;13.47;;;6.83;;
19495;SDS011;9888;48.606;9.630;2022-12-05T23:01:29;14.90;;;7.63;;
19495;SDS011;9888;48.606;9.630;2022-12-05T23:04:02;16.83;;;8.00;;
19495;SDS011;9888;48.606;9.630;2022-12-05T23:06:35;17.10;;;8.00;;
19495;SDS011;9888;48.606;9.630;2022-12-05T23:09:03;14.53;;;7.30;;
19495;SDS011;9888;48.606;9.630;2022-12-05T23:11:33;14.33;;;7.20;;
19495;SDS011;9888;48.606;9.630;2022-12-05T23:14:00;16.77;;;8.60;;
19495;SDS011;9888;48.606;9.630;2022-12-05T23:16:28;20.53;;;9.63;;
19495;SDS011;9888;48.606;9.630;2022-12-05T23:18:57;17.27;;;8.97;;
19495;SDS011;9888;48.606;9.630;2022-12-05T23:21:28;19.63;;;8.97;;
19495;SDS011;9888;48.606;9.630;2022-12-05T23:24:04;18.37;;;8.70;;
19495;SDS011;9888;48.606;9.630;2022-12-05T23:26:36;18.87;;;9.77;;
19495;SDS011;9888;48.606;9.630;2022-12-05T23:29:05;17.13;;;9.30;;
19495;SDS011;9888;48.606;9.630;2022-12-05T23:31:34;17.70;;;9.57;;
19495;SDS011;9888;48.606;9.630;2022-12-05T23:34:01;17.53;;;9.23;;
19495;SDS011;9888;48.606;9.630;2022-12-05T23:36:29;15.30;;;9.00;;
19495;SDS011;9888;48.606;9.630;2022-12-05T23:38:57;17.47;;;9.60;;
19495;SDS011;9888;48.606;9.630;2022-12-05T23:41:25;20.53;;;9.27;;
19495;SDS011;9888;48.606;9.630;2022-12-05T23:43:52;18.40;;;8.97;;
19495;SDS011;9888;48.606;9.630;2022-12-05T23:46:20;15.60;;;7.90;;
19495;SDS011;9888;48.606;9.630;2022-12-05T23:48:49;16.97;;;7.90;;
19495;SDS011;9888;48.606;9.630;2022-12-05T23:51:21;15.77;;;8.30;;
19495;SDS011;9888;48.606;9.630;2022-12-05T23:53:51;17.00;;;8.70;;
19495;SDS011;9888;48.606;9.630;2022-12-05T23:56:21;19.10;;;9.70;;
19495;SDS011;9888;48.606;9.630;2022-12-05T23:58:50;16.27;;;8.27;;
